createdAt,value
2023-01-30T00:08:46.835Z,100796.47
2023-01-30T00:13:09.271Z,100802.62
2023-01-30T00:17:20.671Z,100803.83
2023-01-30T00:38:55.681Z,100695.84
2023-01-30T00:43:23.639Z,100663.21
2023-01-30T01:06:03.867Z,100595.34
2023-01-30T01:10:36.024Z,100559.21
2023-01-30T01:32:02.890Z,100502.13
2023-01-30T01:41:19.445Z,100479.10
2023-01-30T01:45:57.387Z,100487.19
2023-01-30T01:50:27.796Z,100459.09
2023-01-30T01:54:50.103Z,100462.63
2023-01-30T01:59:02.427Z,100471.02
2023-01-30T02:03:36.643Z,100462.20
2023-01-30T02:30:05.913Z,100420.83
2023-01-30T02:34:37.383Z,100401.56
2023-01-30T02:39:05.378Z,100397.55
2023-01-30T02:43:33.348Z,100381.47
2023-01-30T02:47:55.837Z,100367.83
2023-01-30T03:09:48.733Z,100324.75
2023-01-30T03:14:30.244Z,100328.23
2023-01-30T03:19:00.192Z,100326.97
2023-01-30T03:44:47.464Z,100295.11
2023-01-30T03:48:56.645Z,100289.83
2023-01-30T03:53:25.744Z,100273.17
2023-01-30T03:58:02.422Z,100265.06
2023-01-30T04:19:32.782Z,100195.98
2023-01-30T04:24:01.952Z,100178.52
2023-01-30T04:28:24.127Z,100161.15
2023-01-30T04:32:46.034Z,100154.20
2023-01-30T04:36:44.022Z,100141.02
2023-01-30T04:41:13.031Z,100129.64
2023-01-30T05:02:02.921Z,100092.84
2023-01-30T05:06:12.114Z,100080.16
2023-01-30T05:10:09.575Z,100078.58
2023-01-30T05:14:32.516Z,100070.55
2023-01-30T05:41:39.380Z,100029.14
2023-01-30T05:45:57.658Z,100023.05
2023-01-30T06:11:58.856Z,99998.64
2023-01-30T06:16:27.887Z,99988.46
2023-01-30T06:20:57.060Z,99992.83
2023-01-30T06:25:16.722Z,99975.74
2023-01-30T06:29:36.413Z,99984.72
2023-01-30T06:33:49.691Z,99977.81
2023-01-30T06:37:52.308Z,99983.46
2023-01-30T06:41:12.384Z,99984.39
2023-01-30T06:45:30.345Z,99986.59
2023-01-30T06:49:27.282Z,99981.99
2023-01-30T06:53:12.519Z,99973.12
2023-01-30T06:56:43.706Z,99975.59
2023-01-30T07:00:22.669Z,99965.14
2023-01-30T07:04:45.186Z,99964.63
2023-01-30T07:08:59.762Z,99963.60
2023-01-30T07:13:11.710Z,99961.20
2023-01-30T07:16:34.126Z,99967.47
2023-01-30T07:20:52.995Z,99967.42
2023-01-30T07:24:55.460Z,99950.09
2023-01-30T07:28:50.718Z,99960.38
2023-01-30T07:33:02.847Z,99969.06
2023-01-30T07:37:03.817Z,99960.90
2023-01-30T07:40:29.412Z,99962.88
2023-01-30T07:43:46.644Z,99972.41
2023-01-30T07:47:19.687Z,99978.95
2023-01-30T07:51:16.865Z,99988.87
2023-01-30T07:57:56.836Z,99993.20
2023-01-30T08:01:42.234Z,100000.16
2023-01-30T08:12:33.265Z,99988.71
2023-01-30T08:16:40.780Z,99983.84
2023-01-30T08:20:37.834Z,99988.24
2023-01-30T08:24:44.203Z,99985.81
2023-01-30T08:28:24.213Z,99983.27
2023-01-30T08:32:36.370Z,99983.31
2023-01-30T08:36:51.038Z,99983.52
2023-01-30T08:40:21.750Z,99985.17
2023-01-30T08:43:44.009Z,99986.27
2023-01-30T08:47:30.664Z,99987.95
2023-01-30T08:51:27.335Z,99987.83
2023-01-30T08:54:48.373Z,99985.39
2023-01-30T08:58:02.000Z,99968.39
2023-01-30T09:01:09.367Z,99964.13
2023-01-30T09:04:25.028Z,99959.74
2023-01-30T09:08:24.096Z,99949.06
2023-01-30T09:11:56.125Z,99950.97
2023-01-30T09:15:47.133Z,99948.09
2023-01-30T09:20:07.237Z,99954.05
2023-01-30T09:24:22.556Z,99951.25
2023-01-30T09:28:01.787Z,99944.92
2023-01-30T09:31:22.539Z,99939.88
2023-01-30T09:34:22.052Z,99942.91
2023-01-30T09:38:19.053Z,99941.67
2023-01-30T09:42:03.028Z,99948.54
2023-01-30T09:46:00.677Z,99939.96
2023-01-30T09:50:14.602Z,99930.16
2023-01-30T09:54:18.148Z,99919.38
2023-01-30T09:57:59.263Z,99918.95
2023-01-30T10:02:01.369Z,99923.08
2023-01-30T10:06:12.081Z,99926.40
2023-01-30T10:10:39.507Z,99926.40
2023-01-30T10:14:36.422Z,99923.42
2023-01-30T10:18:53.569Z,99928.42
2023-01-30T10:22:45.970Z,99954.66
2023-01-30T10:29:40.317Z,99943.04
2023-01-30T10:33:01.168Z,99942.59
2023-01-30T10:37:04.307Z,99935.76
2023-01-30T10:40:59.497Z,99931.41
2023-01-30T10:45:03.702Z,99927.21
2023-01-30T10:49:55.396Z,99927.39
2023-01-30T10:53:43.177Z,99916.55
2023-01-30T10:57:45.137Z,99914.52
2023-01-30T11:47:28.375Z,99889.16
2023-01-30T11:51:04.716Z,99884.77
2023-01-30T11:58:50.213Z,99875.05
2023-01-30T12:01:52.121Z,99876.06
2023-01-30T12:06:06.658Z,99874.90
2023-01-30T12:09:24.504Z,99871.02
2023-01-30T12:13:04.093Z,99865.34
2023-01-30T12:21:24.559Z,99824.19
2023-01-30T12:25:33.001Z,99820.05
2023-01-30T12:29:04.818Z,99819.04
2023-01-30T12:32:50.762Z,99822.29
2023-01-30T12:37:19.207Z,99827.49
2023-01-30T12:41:40.780Z,99824.15
2023-01-30T12:45:39.378Z,99812.60
2023-01-30T12:49:46.678Z,99803.01
2023-01-30T12:53:39.761Z,99803.84
2023-01-30T12:57:22.321Z,99794.39
2023-01-30T13:01:28.476Z,99791.11
2023-01-30T13:06:11.556Z,99782.05
2023-01-30T13:10:09.074Z,99789.64
2023-01-30T13:13:52.808Z,99793.34
2023-01-30T13:18:23.326Z,99800.50
2023-01-30T13:22:16.222Z,99804.69
2023-01-30T13:30:50.452Z,99823.84
2023-01-30T13:33:55.014Z,99824.02
2023-01-30T13:37:57.360Z,99824.02
2023-01-30T13:41:46.030Z,99821.94
2023-01-30T13:46:02.739Z,99817.79
2023-01-30T13:50:24.549Z,99820.57
2023-01-30T13:54:32.980Z,99818.92
2023-01-30T13:58:25.911Z,99821.25
2023-01-30T14:02:42.284Z,99822.20
2023-01-30T14:06:13.537Z,99822.53
2023-01-30T14:09:56.611Z,99820.52
2023-01-30T14:13:15.189Z,99812.89
2023-01-30T14:16:22.328Z,99812.49
2023-01-30T14:19:50.808Z,99820.08
2023-01-30T14:23:35.470Z,99811.33
2023-01-30T14:28:00.657Z,99810.54
2023-01-30T14:31:07.904Z,99809.00
2023-01-30T14:35:03.215Z,99807.34
2023-01-30T14:38:50.237Z,99804.52
2023-01-30T14:41:54.523Z,99804.51
2023-01-30T14:45:13.700Z,99802.61
2023-01-30T14:49:48.805Z,99805.52
2023-01-30T14:53:15.867Z,99808.15
2023-01-30T14:56:54.979Z,99816.77
2023-01-30T15:00:25.626Z,99815.73
2023-01-30T15:03:48.457Z,99828.18
2023-01-30T15:06:41.936Z,99830.96
2023-01-30T15:09:57.530Z,99838.39
2023-01-30T15:13:38.976Z,99853.95
2023-01-30T15:18:01.988Z,99846.75
2023-01-30T15:22:06.537Z,99845.39
2023-01-30T15:25:56.604Z,99836.80
2023-01-30T15:30:03.165Z,99847.75
2023-01-30T15:33:55.542Z,99860.04
2023-01-30T15:37:36.234Z,99863.71
2023-01-30T15:41:02.865Z,99869.04
2023-01-30T15:45:00.928Z,99879.89
2023-01-30T15:48:19.831Z,99888.36
2023-01-30T15:51:29.765Z,99896.50
2023-01-30T15:55:38.426Z,99895.70
2023-01-30T15:59:34.688Z,99906.05
2023-01-30T16:04:05.265Z,99914.95
2023-01-30T16:08:01.165Z,99911.45
2023-01-30T16:11:16.821Z,99923.89
2023-01-30T16:15:18.411Z,99933.64
2023-01-30T16:19:26.668Z,99939.47
2023-01-30T16:23:45.215Z,99943.38
2023-01-30T16:27:59.158Z,99949.05
2023-01-30T16:31:56.236Z,99956.42
2023-01-30T16:36:15.948Z,99972.55
2023-01-30T16:40:33.920Z,99970.02
2023-01-30T16:45:14.069Z,99973.23
2023-01-30T16:49:44.124Z,99987.24
2023-01-30T16:53:15.853Z,99987.98
2023-01-30T16:56:47.753Z,99999.41
2023-01-30T17:01:09.375Z,100002.64
2023-01-30T17:04:44.366Z,100010.30
2023-01-30T17:09:10.725Z,100029.82
2023-01-30T17:41:57.738Z,100086.11
2023-01-30T17:46:28.203Z,100091.61
2023-01-30T17:50:58.431Z,100101.01
2023-01-30T17:55:18.453Z,100107.20
2023-01-30T17:59:49.102Z,100114.68
2023-01-30T18:04:18.983Z,100120.55
2023-01-30T18:08:49.867Z,100132.27
2023-01-30T18:43:13.581Z,100190.23
2023-01-30T18:47:35.885Z,100191.80
2023-01-30T18:51:58.199Z,100205.17
2023-01-30T18:56:29.879Z,100215.77
2023-01-30T19:00:43.784Z,100219.13
2023-01-30T19:05:13.248Z,100225.39
2023-01-30T19:29:52.283Z,100277.02
2023-01-30T19:34:05.066Z,100289.41
2023-01-30T19:38:07.022Z,100294.95
2023-01-30T19:42:40.370Z,100295.45
2023-01-30T19:47:14.487Z,100307.07
2023-01-30T19:51:22.650Z,100323.59
2023-01-30T19:55:28.844Z,100329.92
2023-01-30T19:59:57.898Z,100334.34
2023-01-30T20:04:26.099Z,100336.49
2023-01-30T20:08:55.751Z,100344.34
2023-01-30T20:12:45.219Z,100358.48
2023-01-30T20:15:45.517Z,100363.36
2023-01-30T20:20:05.850Z,100369.63
2023-01-30T20:50:31.314Z,100414.23
2023-01-30T20:55:01.429Z,100424.66
2023-01-30T20:59:32.229Z,100434.79
2023-01-30T21:22:07.464Z,100494.15
2023-01-30T21:26:27.418Z,100498.89
2023-01-30T21:30:57.160Z,100507.27
2023-01-30T21:39:19.113Z,100512.02
2023-01-30T21:43:48.157Z,100515.92
2023-01-30T21:48:00.545Z,100536.74
2023-01-30T22:14:15.268Z,100569.28
2023-01-30T22:18:44.497Z,100568.67
2023-01-30T22:23:02.243Z,100587.17
2023-01-30T22:27:27.572Z,100588.72
2023-01-30T22:49:23.839Z,100612.77
2023-01-30T22:53:54.724Z,100619.61
2023-01-30T23:15:42.647Z,100640.89
2023-01-30T23:19:54.957Z,100641.89
2023-01-30T23:24:24.392Z,100640.89
2023-01-30T23:46:01.604Z,100678.67
2023-01-30T23:50:31.008Z,100683.33
2023-01-30T23:55:01.094Z,100683.08
